Terminal Aerodrome Forecast
Issued by NWS Dodge City, KS

Home | Current Version | Previous Version | Graphics & Text | Print | Product List | Glossary Off
Versions: 1 2 3 4 5 6 7 8 9 10 11 12 13 14 15 16 17 18 19 20 21 22 23 24

000
FTUS43 KDDC 250812 AAB
TAFDDC
TAF AMD
KDDC 250812Z 2508/2606 04004KT P6SM -TSRA FEW045CB BKN100
     FM251100 02008KT P6SM OVC015
      TEMPO 2512/2514 3SM BR OVC005
     FM251500 02008KT P6SM OVC025
     FM251700 03008KT P6SM BKN035=

USA.gov is the U.S. government's official web portal to all federal, state and local government web resources and services.